sensor_id;sensor_type;location;lat;lon;timestamp;temperature;humidity
16958;DHT22;8595;52.542;11.974;2024-03-06T00:01:04;4.90;99.90
16958;DHT22;8595;52.542;11.974;2024-03-06T00:03:32;4.90;99.90
16958;DHT22;8595;52.542;11.974;2024-03-06T00:06:03;4.90;99.90
16958;DHT22;8595;52.542;11.974;2024-03-06T00:08:30;4.90;99.90
16958;DHT22;8595;52.542;11.974;2024-03-06T00:10:56;5.00;99.90
16958;DHT22;8595;52.542;11.974;2024-03-06T00:13:23;4.90;99.90
16958;DHT22;8595;52.542;11.974;2024-03-06T00:15:50;4.90;99.90
16958;DHT22;8595;52.542;11.974;2024-03-06T00:18:17;5.00;99.90
16958;DHT22;8595;52.542;11.974;2024-03-06T00:20:44;4.80;99.90
16958;DHT22;8595;52.542;11.974;2024-03-06T00:23:11;4.70;99.90
16958;DHT22;8595;52.542;11.974;2024-03-06T00:25:37;4.70;99.90
16958;DHT22;8595;52.542;11.974;2024-03-06T00:28:05;4.70;99.90
16958;DHT22;8595;52.542;11.974;2024-03-06T00:30:31;4.70;99.90
16958;DHT22;8595;52.542;11.974;2024-03-06T00:32:58;4.50;99.90
16958;DHT22;8595;52.542;11.974;2024-03-06T00:35:26;4.50;99.90
16958;DHT22;8595;52.542;11.974;2024-03-06T00:37:54;4.50;99.90
16958;DHT22;8595;52.542;11.974;2024-03-06T00:40:20;4.50;99.90
16958;DHT22;8595;52.542;11.974;2024-03-06T00:42:47;4.50;99.90
16958;DHT22;8595;52.542;11.974;2024-03-06T00:45:14;4.40;99.90
16958;DHT22;8595;52.542;11.974;2024-03-06T00:47:40;4.40;99.90
16958;DHT22;8595;52.542;11.974;2024-03-06T00:50:07;4.50;99.90
16958;DHT22;8595;52.542;11.974;2024-03-06T00:52:35;4.40;99.90
16958;DHT22;8595;52.542;11.974;2024-03-06T00:55:02;4.40;99.90
16958;DHT22;8595;52.542;11.974;2024-03-06T00:57:29;4.40;99.90
16958;DHT22;8595;52.542;11.974;2024-03-06T00:59:55;4.40;99.90
16958;DHT22;8595;52.542;11.974;2024-03-06T01:02:22;4.50;99.90
16958;DHT22;8595;52.542;11.974;2024-03-06T01:04:49;4.50;99.90
16958;DHT22;8595;52.542;11.974;2024-03-06T01:07:15;4.60;99.90
16958;DHT22;8595;52.542;11.974;2024-03-06T01:09:44;4.60;99.90
16958;DHT22;8595;52.542;11.974;2024-03-06T01:12:10;4.60;99.90
16958;DHT22;8595;52.542;11.974;2024-03-06T01:14:37;4.50;99.90
16958;DHT22;8595;52.542;11.974;2024-03-06T01:17:04;4.40;99.90
16958;DHT22;8595;52.542;11.974;2024-03-06T01:19:30;4.30;99.90
16958;DHT22;8595;52.542;11.974;2024-03-06T01:21:57;4.30;99.90
16958;DHT22;8595;52.542;11.974;2024-03-06T01:24:24;4.30;99.90
16958;DHT22;8595;52.542;11.974;2024-03-06T01:26:52;4.30;99.90
16958;DHT22;8595;52.542;11.974;2024-03-06T01:29:19;4.30;99.90
16958;DHT22;8595;52.542;11.974;2024-03-06T01:31:48;4.20;99.90
16958;DHT22;8595;52.542;11.974;2024-03-06T01:34:15;4.30;99.90
16958;DHT22;8595;52.542;11.974;2024-03-06T01:36:42;4.20;99.90
16958;DHT22;8595;52.542;11.974;2024-03-06T01:39:08;4.10;99.90
16958;DHT22;8595;52.542;11.974;2024-03-06T01:41:35;4.10;99.90
16958;DHT22;8595;52.542;11.974;2024-03-06T01:44:03;4.10;99.90
16958;DHT22;8595;52.542;11.974;2024-03-06T01:46:30;4.10;99.90
16958;DHT22;8595;52.542;11.974;2024-03-06T01:48:56;4.10;99.90
16958;DHT22;8595;52.542;11.974;2024-03-06T01:51:23;4.10;99.90
16958;DHT22;8595;52.542;11.974;2024-03-06T01:53:50;4.10;99.90
16958;DHT22;8595;52.542;11.974;2024-03-06T01:56:17;4.00;99.90
16958;DHT22;8595;52.542;11.974;2024-03-06T01:58:45;3.90;99.90
16958;DHT22;8595;52.542;11.974;2024-03-06T02:01:16;3.90;99.90
16958;DHT22;8595;52.542;11.974;2024-03-06T02:03:43;3.90;99.90
16958;DHT22;8595;52.542;11.974;2024-03-06T02:06:10;3.90;99.90
16958;DHT22;8595;52.542;11.974;2024-03-06T02:08:37;3.80;99.90
16958;DHT22;8595;52.542;11.974;2024-03-06T02:11:04;3.80;99.90
16958;DHT22;8595;52.542;11.974;2024-03-06T02:13:32;3.80;99.90
16958;DHT22;8595;52.542;11.974;2024-03-06T02:15:59;3.80;99.90
16958;DHT22;8595;52.542;11.974;2024-03-06T02:18:27;3.70;99.90
16958;DHT22;8595;52.542;11.974;2024-03-06T02:20:55;3.60;99.90
16958;DHT22;8595;52.542;11.974;2024-03-06T02:23:22;3.50;99.90
16958;DHT22;8595;52.542;11.974;2024-03-06T02:25:49;3.50;99.90
16958;DHT22;8595;52.542;11.974;2024-03-06T02:28:16;3.40;99.90
16958;DHT22;8595;52.542;11.974;2024-03-06T02:30:43;3.40;99.90
16958;DHT22;8595;52.542;11.974;2024-03-06T02:33:10;3.30;99.90
16958;DHT22;8595;52.542;11.974;2024-03-06T02:35:36;3.30;99.90
16958;DHT22;8595;52.542;11.974;2024-03-06T02:38:05;3.20;99.90
16958;DHT22;8595;52.542;11.974;2024-03-06T02:40:32;3.20;99.90
16958;DHT22;8595;52.542;11.974;2024-03-06T02:42:59;3.30;99.90
16958;DHT22;8595;52.542;11.974;2024-03-06T02:45:25;3.30;99.90
16958;DHT22;8595;52.542;11.974;2024-03-06T02:47:52;3.30;99.90
16958;DHT22;8595;52.542;11.974;2024-03-06T02:50:18;3.20;99.90
16958;DHT22;8595;52.542;11.974;2024-03-06T02:52:46;3.20;99.90
16958;DHT22;8595;52.542;11.974;2024-03-06T02:55:14;3.10;99.90
16958;DHT22;8595;52.542;11.974;2024-03-06T02:57:40;3.10;99.90
16958;DHT22;8595;52.542;11.974;2024-03-06T03:00:08;3.10;99.90
16958;DHT22;8595;52.542;11.974;2024-03-06T03:02:38;3.10;99.90
16958;DHT22;8595;52.542;11.974;2024-03-06T03:05:05;3.10;99.90
16958;DHT22;8595;52.542;11.974;2024-03-06T03:07:32;3.10;99.90
16958;DHT22;8595;52.542;11.974;2024-03-06T03:09:59;3.10;99.90
16958;DHT22;8595;52.542;11.974;2024-03-06T03:12:27;3.10;99.90
16958;DHT22;8595;52.542;11.974;2024-03-06T03:14:53;3.10;99.90
16958;DHT22;8595;52.542;11.974;2024-03-06T03:17:20;3.10;99.90
16958;DHT22;8595;52.542;11.974;2024-03-06T03:19:47;3.10;99.90
16958;DHT22;8595;52.542;11.974;2024-03-06T03:22:13;3.10;99.90
16958;DHT22;8595;52.542;11.974;2024-03-06T03:24:41;3.00;99.90
16958;DHT22;8595;52.542;11.974;2024-03-06T03:27:08;3.00;99.90
16958;DHT22;8595;52.542;11.974;2024-03-06T03:29:35;3.00;99.90
16958;DHT22;8595;52.542;11.974;2024-03-06T03:32:02;3.00;99.90
16958;DHT22;8595;52.542;11.974;2024-03-06T03:34:29;2.90;99.90
16958;DHT22;8595;52.542;11.974;2024-03-06T03:36:56;2.90;99.90
16958;DHT22;8595;52.542;11.974;2024-03-06T03:39:23;2.90;99.90
16958;DHT22;8595;52.542;11.974;2024-03-06T03:41:50;2.90;99.90
16958;DHT22;8595;52.542;11.974;2024-03-06T03:44:17;3.00;99.90
16958;DHT22;8595;52.542;11.974;2024-03-06T03:46:46;3.00;99.90
16958;DHT22;8595;52.542;11.974;2024-03-06T03:49:13;2.90;99.90
16958;DHT22;8595;52.542;11.974;2024-03-06T03:51:40;2.90;99.90
16958;DHT22;8595;52.542;11.974;2024-03-06T03:54:07;2.90;99.90
16958;DHT22;8595;52.542;11.974;2024-03-06T03:56:34;2.90;99.90
16958;DHT22;8595;52.542;11.974;2024-03-06T03:59:01;2.80;99.90
16958;DHT22;8595;52.542;11.974;2024-03-06T04:01:28;2.70;99.90
16958;DHT22;8595;52.542;11.974;2024-03-06T04:03:56;2.70;99.90
16958;DHT22;8595;52.542;11.974;2024-03-06T04:06:22;2.70;99.90
16958;DHT22;8595;52.542;11.974;2024-03-06T04:08:49;2.80;99.90
16958;DHT22;8595;52.542;11.974;2024-03-06T04:11:16;2.80;99.90
16958;DHT22;8595;52.542;11.974;2024-03-06T04:13:43;2.70;99.90
16958;DHT22;8595;52.542;11.974;2024-03-06T04:16:10;2.70;99.90
16958;DHT22;8595;52.542;11.974;2024-03-06T04:18:36;2.70;99.90
16958;DHT22;8595;52.542;11.974;2024-03-06T04:21:05;2.70;99.90
16958;DHT22;8595;52.542;11.974;2024-03-06T04:23:33;2.70;99.90
16958;DHT22;8595;52.542;11.974;2024-03-06T04:25:59;2.70;99.90
16958;DHT22;8595;52.542;11.974;2024-03-06T04:28:26;2.70;99.90
16958;DHT22;8595;52.542;11.974;2024-03-06T04:30:53;2.70;99.90
16958;DHT22;8595;52.542;11.974;2024-03-06T04:33:19;2.70;99.90
16958;DHT22;8595;52.542;11.974;2024-03-06T04:35:46;2.80;99.90
16958;DHT22;8595;52.542;11.974;2024-03-06T04:38:14;2.80;99.90
16958;DHT22;8595;52.542;11.974;2024-03-06T04:40:41;2.90;99.90
16958;DHT22;8595;52.542;11.974;2024-03-06T04:43:07;2.90;99.90
16958;DHT22;8595;52.542;11.974;2024-03-06T04:45:33;2.90;99.90
16958;DHT22;8595;52.542;11.974;2024-03-06T04:48:00;2.80;99.90
16958;DHT22;8595;52.542;11.974;2024-03-06T04:50:26;2.70;99.90
16958;DHT22;8595;52.542;11.974;2024-03-06T04:52:53;2.70;99.90
16958;DHT22;8595;52.542;11.974;2024-03-06T04:55:22;2.60;99.90
16958;DHT22;8595;52.542;11.974;2024-03-06T04:57:48;2.60;99.90
16958;DHT22;8595;52.542;11.974;2024-03-06T05:00:15;2.70;99.90
16958;DHT22;8595;52.542;11.974;2024-03-06T05:02:43;2.70;99.90
16958;DHT22;8595;52.542;11.974;2024-03-06T05:05:10;2.70;99.90
16958;DHT22;8595;52.542;11.974;2024-03-06T05:07:37;2.70;99.90
16958;DHT22;8595;52.542;11.974;2024-03-06T05:10:04;2.70;99.90
16958;DHT22;8595;52.542;11.974;2024-03-06T05:12:34;2.80;99.90
16958;DHT22;8595;52.542;11.974;2024-03-06T05:15:01;2.80;99.90
16958;DHT22;8595;52.542;11.974;2024-03-06T05:17:28;2.80;99.90
16958;DHT22;8595;52.542;11.974;2024-03-06T05:19:54;2.90;99.90
16958;DHT22;8595;52.542;11.974;2024-03-06T05:22:21;2.80;99.90
16958;DHT22;8595;52.542;11.974;2024-03-06T05:24:48;2.80;99.90
16958;DHT22;8595;52.542;11.974;2024-03-06T05:27:15;2.80;99.90
16958;DHT22;8595;52.542;11.974;2024-03-06T05:29:44;2.80;99.90
16958;DHT22;8595;52.542;11.974;2024-03-06T05:32:10;2.80;99.90
16958;DHT22;8595;52.542;11.974;2024-03-06T05:34:37;2.70;99.90
16958;DHT22;8595;52.542;11.974;2024-03-06T05:37:04;2.70;99.90
16958;DHT22;8595;52.542;11.974;2024-03-06T05:39:31;2.70;99.90
16958;DHT22;8595;52.542;11.974;2024-03-06T05:42:00;2.70;99.90
16958;DHT22;8595;52.542;11.974;2024-03-06T05:44:29;2.60;99.90
16958;DHT22;8595;52.542;11.974;2024-03-06T05:46:58;2.60;99.90
16958;DHT22;8595;52.542;11.974;2024-03-06T05:49:26;2.60;99.90
16958;DHT22;8595;52.542;11.974;2024-03-06T05:51:52;2.70;99.90
16958;DHT22;8595;52.542;11.974;2024-03-06T05:54:19;2.70;99.90
16958;DHT22;8595;52.542;11.974;2024-03-06T05:56:47;2.70;99.90
16958;DHT22;8595;52.542;11.974;2024-03-06T05:59:14;2.60;99.90
16958;DHT22;8595;52.542;11.974;2024-03-06T06:01:41;2.70;99.90
16958;DHT22;8595;52.542;11.974;2024-03-06T06:04:09;2.70;99.90
16958;DHT22;8595;52.542;11.974;2024-03-06T06:06:36;2.70;99.90
16958;DHT22;8595;52.542;11.974;2024-03-06T06:09:03;2.70;99.90
16958;DHT22;8595;52.542;11.974;2024-03-06T06:11:31;2.70;99.90
16958;DHT22;8595;52.542;11.974;2024-03-06T06:13:58;2.70;99.90
16958;DHT22;8595;52.542;11.974;2024-03-06T06:16:24;2.70;99.90
16958;DHT22;8595;52.542;11.974;2024-03-06T06:18:51;2.70;99.90
16958;DHT22;8595;52.542;11.974;2024-03-06T06:21:19;2.70;99.90
16958;DHT22;8595;52.542;11.974;2024-03-06T06:23:45;2.80;99.90
16958;DHT22;8595;52.542;11.974;2024-03-06T06:26:13;2.80;99.90
16958;DHT22;8595;52.542;11.974;2024-03-06T06:28:40;2.70;99.90
16958;DHT22;8595;52.542;11.974;2024-03-06T06:31:07;2.80;99.90
16958;DHT22;8595;52.542;11.974;2024-03-06T06:33:34;2.90;99.90
16958;DHT22;8595;52.542;11.974;2024-03-06T06:36:00;2.90;99.90
16958;DHT22;8595;52.542;11.974;2024-03-06T06:38:28;2.90;99.90
16958;DHT22;8595;52.542;11.974;2024-03-06T06:40:55;2.90;99.90
16958;DHT22;8595;52.542;11.974;2024-03-06T06:43:22;3.00;99.90
16958;DHT22;8595;52.542;11.974;2024-03-06T06:45:49;3.00;99.90
16958;DHT22;8595;52.542;11.974;2024-03-06T06:48:16;3.00;99.90
16958;DHT22;8595;52.542;11.974;2024-03-06T06:50:43;3.00;99.90
16958;DHT22;8595;52.542;11.974;2024-03-06T06:53:13;3.00;99.90
16958;DHT22;8595;52.542;11.974;2024-03-06T06:55:41;3.10;99.90
16958;DHT22;8595;52.542;11.974;2024-03-06T06:58:08;3.20;99.90
16958;DHT22;8595;52.542;11.974;2024-03-06T07:00:35;3.20;99.90
16958;DHT22;8595;52.542;11.974;2024-03-06T07:03:03;3.20;99.90
16958;DHT22;8595;52.542;11.974;2024-03-06T07:05:30;3.20;99.90
16958;DHT22;8595;52.542;11.974;2024-03-06T07:07:57;3.10;99.90
16958;DHT22;8595;52.542;11.974;2024-03-06T07:10:23;3.20;99.90
16958;DHT22;8595;52.542;11.974;2024-03-06T07:12:51;3.30;99.90
16958;DHT22;8595;52.542;11.974;2024-03-06T07:15:18;3.30;99.90
16958;DHT22;8595;52.542;11.974;2024-03-06T07:17:45;3.30;99.90
16958;DHT22;8595;52.542;11.974;2024-03-06T07:20:11;3.30;99.90
16958;DHT22;8595;52.542;11.974;2024-03-06T07:22:39;3.30;99.90
16958;DHT22;8595;52.542;11.974;2024-03-06T07:25:06;3.30;99.90
16958;DHT22;8595;52.542;11.974;2024-03-06T07:27:33;3.30;99.90
16958;DHT22;8595;52.542;11.974;2024-03-06T07:30:01;3.30;99.90
16958;DHT22;8595;52.542;11.974;2024-03-06T07:32:28;3.40;99.90
16958;DHT22;8595;52.542;11.974;2024-03-06T07:34:54;4.00;99.90
16958;DHT22;8595;52.542;11.974;2024-03-06T07:37:21;4.50;99.90
16958;DHT22;8595;52.542;11.974;2024-03-06T07:39:48;5.30;99.90
16958;DHT22;8595;52.542;11.974;2024-03-06T07:42:14;6.00;99.90
16958;DHT22;8595;52.542;11.974;2024-03-06T07:44:43;6.50;99.90
16958;DHT22;8595;52.542;11.974;2024-03-06T07:47:11;7.00;99.90
16958;DHT22;8595;52.542;11.974;2024-03-06T07:49:39;7.50;99.90
16958;DHT22;8595;52.542;11.974;2024-03-06T07:52:06;7.60;99.90
16958;DHT22;8595;52.542;11.974;2024-03-06T07:54:34;7.60;99.90
16958;DHT22;8595;52.542;11.974;2024-03-06T07:57:01;7.80;99.90
16958;DHT22;8595;52.542;11.974;2024-03-06T07:59:27;8.10;99.90
16958;DHT22;8595;52.542;11.974;2024-03-06T08:01:54;8.40;99.90
16958;DHT22;8595;52.542;11.974;2024-03-06T08:04:22;8.80;99.90
16958;DHT22;8595;52.542;11.974;2024-03-06T08:06:49;9.00;99.90
16958;DHT22;8595;52.542;11.974;2024-03-06T08:09:15;8.90;99.90
16958;DHT22;8595;52.542;11.974;2024-03-06T08:11:43;9.10;99.90
16958;DHT22;8595;52.542;11.974;2024-03-06T08:14:10;9.30;99.90
16958;DHT22;8595;52.542;11.974;2024-03-06T08:16:37;9.70;99.90
16958;DHT22;8595;52.542;11.974;2024-03-06T08:19:04;9.80;99.90
16958;DHT22;8595;52.542;11.974;2024-03-06T08:21:32;9.70;99.90
16958;DHT22;8595;52.542;11.974;2024-03-06T08:23:58;9.80;99.90
16958;DHT22;8595;52.542;11.974;2024-03-06T08:26:25;9.80;99.90
16958;DHT22;8595;52.542;11.974;2024-03-06T08:35:28;10.60;99.90
16958;DHT22;8595;52.542;11.974;2024-03-06T08:37:56;10.90;99.90
16958;DHT22;8595;52.542;11.974;2024-03-06T08:40:22;10.90;99.90
16958;DHT22;8595;52.542;11.974;2024-03-06T08:42:51;11.00;99.90
16958;DHT22;8595;52.542;11.974;2024-03-06T08:45:17;10.50;99.90
16958;DHT22;8595;52.542;11.974;2024-03-06T08:47:47;10.20;99.90
16958;DHT22;8595;52.542;11.974;2024-03-06T08:50:14;10.80;99.90
16958;DHT22;8595;52.542;11.974;2024-03-06T08:52:42;11.10;99.90
16958;DHT22;8595;52.542;11.974;2024-03-06T08:55:10;11.60;99.90
16958;DHT22;8595;52.542;11.974;2024-03-06T08:57:37;12.10;99.90
16958;DHT22;8595;52.542;11.974;2024-03-06T09:00:05;11.90;99.90
16958;DHT22;8595;52.542;11.974;2024-03-06T09:02:34;12.00;99.90
16958;DHT22;8595;52.542;11.974;2024-03-06T09:05:00;11.60;99.90
16958;DHT22;8595;52.542;11.974;2024-03-06T09:07:30;11.50;99.90
16958;DHT22;8595;52.542;11.974;2024-03-06T09:09:56;11.50;99.90
16958;DHT22;8595;52.542;11.974;2024-03-06T09:12:24;11.70;99.90
16958;DHT22;8595;52.542;11.974;2024-03-06T09:14:51;11.90;99.90
16958;DHT22;8595;52.542;11.974;2024-03-06T09:17:18;12.30;99.90
16958;DHT22;8595;52.542;11.974;2024-03-06T09:19:44;12.80;99.90
16958;DHT22;8595;52.542;11.974;2024-03-06T09:22:11;13.10;99.90
16958;DHT22;8595;52.542;11.974;2024-03-06T09:24:37;13.60;99.90
16958;DHT22;8595;52.542;11.974;2024-03-06T09:27:04;13.60;99.90
16958;DHT22;8595;52.542;11.974;2024-03-06T09:29:32;13.80;99.90
16958;DHT22;8595;52.542;11.974;2024-03-06T09:31:59;14.00;99.90
16958;DHT22;8595;52.542;11.974;2024-03-06T09:34:26;13.80;99.90
16958;DHT22;8595;52.542;11.974;2024-03-06T09:36:53;14.10;99.90
16958;DHT22;8595;52.542;11.974;2024-03-06T09:39:20;14.00;99.90
16958;DHT22;8595;52.542;11.974;2024-03-06T09:41:48;14.50;99.90
16958;DHT22;8595;52.542;11.974;2024-03-06T09:44:15;13.80;99.90
16958;DHT22;8595;52.542;11.974;2024-03-06T09:46:45;13.60;99.90
16958;DHT22;8595;52.542;11.974;2024-03-06T09:49:13;14.30;99.90
16958;DHT22;8595;52.542;11.974;2024-03-06T09:51:43;14.70;99.90
16958;DHT22;8595;52.542;11.974;2024-03-06T09:54:11;14.70;99.90
16958;DHT22;8595;52.542;11.974;2024-03-06T09:56:41;15.00;99.90
16958;DHT22;8595;52.542;11.974;2024-03-06T09:59:09;15.40;99.90
16958;DHT22;8595;52.542;11.974;2024-03-06T10:01:39;15.90;99.90
16958;DHT22;8595;52.542;11.974;2024-03-06T10:04:21;16.00;99.90
16958;DHT22;8595;52.542;11.974;2024-03-06T10:06:50;15.80;99.90
16958;DHT22;8595;52.542;11.974;2024-03-06T10:09:18;15.90;99.90
16958;DHT22;8595;52.542;11.974;2024-03-06T10:11:45;15.90;99.90
16958;DHT22;8595;52.542;11.974;2024-03-06T10:14:12;15.80;99.90
16958;DHT22;8595;52.542;11.974;2024-03-06T10:16:52;16.00;99.90
16958;DHT22;8595;52.542;11.974;2024-03-06T10:19:22;16.50;99.90
16958;DHT22;8595;52.542;11.974;2024-03-06T10:21:50;15.90;99.90
16958;DHT22;8595;52.542;11.974;2024-03-06T10:24:18;16.10;99.90
16958;DHT22;8595;52.542;11.974;2024-03-06T10:26:45;16.00;99.90
16958;DHT22;8595;52.542;11.974;2024-03-06T10:29:16;16.20;99.90
16958;DHT22;8595;52.542;11.974;2024-03-06T10:31:51;16.50;99.90
16958;DHT22;8595;52.542;11.974;2024-03-06T10:34:23;16.60;99.90
16958;DHT22;8595;52.542;11.974;2024-03-06T10:36:54;16.70;99.90
16958;DHT22;8595;52.542;11.974;2024-03-06T10:39:21;16.60;99.30
16958;DHT22;8595;52.542;11.974;2024-03-06T10:41:52;15.70;99.10
16958;DHT22;8595;52.542;11.974;2024-03-06T10:44:21;15.90;99.80
16958;DHT22;8595;52.542;11.974;2024-03-06T10:46:53;16.40;99.90
16958;DHT22;8595;52.542;11.974;2024-03-06T10:49:25;16.60;97.70
16958;DHT22;8595;52.542;11.974;2024-03-06T10:51:54;16.60;98.00
16958;DHT22;8595;52.542;11.974;2024-03-06T10:54:26;16.40;97.40
16958;DHT22;8595;52.542;11.974;2024-03-06T10:56:54;16.70;99.90
16958;DHT22;8595;52.542;11.974;2024-03-06T10:59:21;16.70;99.60
16958;DHT22;8595;52.542;11.974;2024-03-06T11:01:53;17.00;96.80
16958;DHT22;8595;52.542;11.974;2024-03-06T11:04:21;17.30;98.10
16958;DHT22;8595;52.542;11.974;2024-03-06T11:06:50;17.60;97.70
16958;DHT22;8595;52.542;11.974;2024-03-06T11:09:17;17.70;96.10
16958;DHT22;8595;52.542;11.974;2024-03-06T11:11:48;17.90;96.90
16958;DHT22;8595;52.542;11.974;2024-03-06T11:14:15;17.70;96.00
16958;DHT22;8595;52.542;11.974;2024-03-06T11:17:00;17.60;96.30
16958;DHT22;8595;52.542;11.974;2024-03-06T11:19:28;17.80;96.70
16958;DHT22;8595;52.542;11.974;2024-03-06T11:21:57;18.40;97.50
16958;DHT22;8595;52.542;11.974;2024-03-06T11:24:32;18.40;94.60
16958;DHT22;8595;52.542;11.974;2024-03-06T11:27:00;18.60;93.30
16958;DHT22;8595;52.542;11.974;2024-03-06T11:29:28;18.50;93.10
16958;DHT22;8595;52.542;11.974;2024-03-06T11:32:03;18.50;95.50
16958;DHT22;8595;52.542;11.974;2024-03-06T11:34:32;17.40;94.10
16958;DHT22;8595;52.542;11.974;2024-03-06T11:37:03;16.90;94.90
16958;DHT22;8595;52.542;11.974;2024-03-06T11:39:33;17.00;96.50
16958;DHT22;8595;52.542;11.974;2024-03-06T11:42:02;17.10;95.10
16958;DHT22;8595;52.542;11.974;2024-03-06T11:44:29;17.10;95.60
16958;DHT22;8595;52.542;11.974;2024-03-06T11:47:00;16.90;97.40
16958;DHT22;8595;52.542;11.974;2024-03-06T11:49:27;16.50;94.70
16958;DHT22;8595;52.542;11.974;2024-03-06T11:51:59;15.60;99.00
16958;DHT22;8595;52.542;11.974;2024-03-06T11:54:28;15.10;99.90
16958;DHT22;8595;52.542;11.974;2024-03-06T11:56:56;14.40;99.90
16958;DHT22;8595;52.542;11.974;2024-03-06T11:59:23;14.00;99.90
16958;DHT22;8595;52.542;11.974;2024-03-06T12:01:50;13.80;99.90
16958;DHT22;8595;52.542;11.974;2024-03-06T12:04:19;13.60;99.90
16958;DHT22;8595;52.542;11.974;2024-03-06T12:06:46;13.50;99.90
16958;DHT22;8595;52.542;11.974;2024-03-06T12:09:13;13.60;99.90
16958;DHT22;8595;52.542;11.974;2024-03-06T12:11:42;13.50;99.90
16958;DHT22;8595;52.542;11.974;2024-03-06T12:14:13;13.80;99.90
16958;DHT22;8595;52.542;11.974;2024-03-06T12:16:41;14.80;99.90
16958;DHT22;8595;52.542;11.974;2024-03-06T12:19:08;15.60;99.90
16958;DHT22;8595;52.542;11.974;2024-03-06T12:21:36;16.50;99.90
16958;DHT22;8595;52.542;11.974;2024-03-06T12:24:04;17.30;98.30
16958;DHT22;8595;52.542;11.974;2024-03-06T12:26:30;17.60;98.30
16958;DHT22;8595;52.542;11.974;2024-03-06T12:29:05;17.50;96.50
16958;DHT22;8595;52.542;11.974;2024-03-06T12:31:33;17.70;97.50
16958;DHT22;8595;52.542;11.974;2024-03-06T12:34:00;16.80;96.60
16958;DHT22;8595;52.542;11.974;2024-03-06T12:36:28;14.80;99.90
16958;DHT22;8595;52.542;11.974;2024-03-06T12:38:56;13.70;99.90
16958;DHT22;8595;52.542;11.974;2024-03-06T12:41:23;12.40;99.90
16958;DHT22;8595;52.542;11.974;2024-03-06T12:43:51;12.10;99.90
16958;DHT22;8595;52.542;11.974;2024-03-06T12:46:19;12.00;99.90
16958;DHT22;8595;52.542;11.974;2024-03-06T12:48:46;12.30;99.90
16958;DHT22;8595;52.542;11.974;2024-03-06T12:51:13;12.60;99.90
16958;DHT22;8595;52.542;11.974;2024-03-06T12:53:40;12.40;99.90
16958;DHT22;8595;52.542;11.974;2024-03-06T12:56:06;12.30;99.90
16958;DHT22;8595;52.542;11.974;2024-03-06T12:58:33;12.20;99.90
16958;DHT22;8595;52.542;11.974;2024-03-06T13:01:01;12.10;99.90
16958;DHT22;8595;52.542;11.974;2024-03-06T13:03:29;12.10;99.90
16958;DHT22;8595;52.542;11.974;2024-03-06T13:05:56;11.80;99.90
16958;DHT22;8595;52.542;11.974;2024-03-06T13:08:23;12.30;99.90
16958;DHT22;8595;52.542;11.974;2024-03-06T13:10:50;13.40;99.90
16958;DHT22;8595;52.542;11.974;2024-03-06T13:13:17;14.60;99.90
16958;DHT22;8595;52.542;11.974;2024-03-06T13:15:43;14.90;99.90
16958;DHT22;8595;52.542;11.974;2024-03-06T13:18:11;15.30;99.90
16958;DHT22;8595;52.542;11.974;2024-03-06T13:20:39;15.30;99.90
16958;DHT22;8595;52.542;11.974;2024-03-06T13:23:06;15.10;99.90
16958;DHT22;8595;52.542;11.974;2024-03-06T13:25:33;14.70;99.90
16958;DHT22;8595;52.542;11.974;2024-03-06T13:27:59;13.80;99.90
16958;DHT22;8595;52.542;11.974;2024-03-06T13:30:27;13.40;99.90
16958;DHT22;8595;52.542;11.974;2024-03-06T13:32:54;12.90;99.90
16958;DHT22;8595;52.542;11.974;2024-03-06T13:35:21;12.40;99.90
16958;DHT22;8595;52.542;11.974;2024-03-06T13:37:49;12.20;99.90
16958;DHT22;8595;52.542;11.974;2024-03-06T13:40:17;12.20;99.90
16958;DHT22;8595;52.542;11.974;2024-03-06T13:42:43;12.30;99.90
16958;DHT22;8595;52.542;11.974;2024-03-06T13:45:10;12.40;99.90
16958;DHT22;8595;52.542;11.974;2024-03-06T13:47:38;12.60;99.90
16958;DHT22;8595;52.542;11.974;2024-03-06T13:50:07;12.90;99.90
16958;DHT22;8595;52.542;11.974;2024-03-06T13:52:35;13.40;99.90
16958;DHT22;8595;52.542;11.974;2024-03-06T13:55:04;14.20;99.90
16958;DHT22;8595;52.542;11.974;2024-03-06T13:57:32;14.90;99.90
16958;DHT22;8595;52.542;11.974;2024-03-06T14:00:00;15.60;99.90
16958;DHT22;8595;52.542;11.974;2024-03-06T14:02:26;15.80;99.90
16958;DHT22;8595;52.542;11.974;2024-03-06T14:04:54;16.30;99.90
16958;DHT22;8595;52.542;11.974;2024-03-06T14:07:21;16.20;99.90
16958;DHT22;8595;52.542;11.974;2024-03-06T14:23:17;16.10;98.90
16958;DHT22;8595;52.542;11.974;2024-03-06T14:25:44;16.10;99.90
16958;DHT22;8595;52.542;11.974;2024-03-06T14:28:11;15.80;98.50
16958;DHT22;8595;52.542;11.974;2024-03-06T14:30:38;15.90;99.10
16958;DHT22;8595;52.542;11.974;2024-03-06T14:33:04;16.30;99.60
16958;DHT22;8595;52.542;11.974;2024-03-06T14:35:31;16.40;98.60
16958;DHT22;8595;52.542;11.974;2024-03-06T14:37:58;16.70;98.70
16958;DHT22;8595;52.542;11.974;2024-03-06T14:40:26;16.20;96.90
16958;DHT22;8595;52.542;11.974;2024-03-06T14:42:53;15.80;97.90
16958;DHT22;8595;52.542;11.974;2024-03-06T14:45:20;15.90;98.80
16958;DHT22;8595;52.542;11.974;2024-03-06T14:47:47;16.30;97.10
16958;DHT22;8595;52.542;11.974;2024-03-06T14:50:13;16.70;98.00
16958;DHT22;8595;52.542;11.974;2024-03-06T14:52:40;16.90;95.20
16958;DHT22;8595;52.542;11.974;2024-03-06T14:55:07;17.10;95.30
16958;DHT22;8595;52.542;11.974;2024-03-06T14:57:35;17.10;94.50
16958;DHT22;8595;52.542;11.974;2024-03-06T15:00:02;16.90;95.70
16958;DHT22;8595;52.542;11.974;2024-03-06T15:02:32;16.80;95.40
16958;DHT22;8595;52.542;11.974;2024-03-06T15:04:58;17.20;95.50
16958;DHT22;8595;52.542;11.974;2024-03-06T15:07:25;17.10;93.90
16958;DHT22;8595;52.542;11.974;2024-03-06T15:09:52;16.90;96.20
16958;DHT22;8595;52.542;11.974;2024-03-06T15:12:18;16.70;96.00
16958;DHT22;8595;52.542;11.974;2024-03-06T15:14:46;16.70;94.40
16958;DHT22;8595;52.542;11.974;2024-03-06T15:17:14;16.40;94.00
16958;DHT22;8595;52.542;11.974;2024-03-06T15:19:40;15.90;95.10
16958;DHT22;8595;52.542;11.974;2024-03-06T15:22:07;15.20;98.00
16958;DHT22;8595;52.542;11.974;2024-03-06T15:24:34;14.60;97.60
16958;DHT22;8595;52.542;11.974;2024-03-06T15:27:00;14.30;99.30
16958;DHT22;8595;52.542;11.974;2024-03-06T15:29:27;14.50;99.90
16958;DHT22;8595;52.542;11.974;2024-03-06T15:31:55;14.60;98.60
16958;DHT22;8595;52.542;11.974;2024-03-06T15:34:21;14.90;99.90
16958;DHT22;8595;52.542;11.974;2024-03-06T15:36:48;15.10;99.60
16958;DHT22;8595;52.542;11.974;2024-03-06T15:39:15;15.30;98.10
16958;DHT22;8595;52.542;11.974;2024-03-06T15:41:41;15.30;99.90
16958;DHT22;8595;52.542;11.974;2024-03-06T15:44:08;15.40;98.90
16958;DHT22;8595;52.542;11.974;2024-03-06T15:46:36;15.70;98.00
16958;DHT22;8595;52.542;11.974;2024-03-06T15:49:07;15.60;97.90
16958;DHT22;8595;52.542;11.974;2024-03-06T15:51:44;15.60;99.10
16958;DHT22;8595;52.542;11.974;2024-03-06T15:54:11;14.70;98.40
16958;DHT22;8595;52.542;11.974;2024-03-06T15:56:37;14.00;99.90
16958;DHT22;8595;52.542;11.974;2024-03-06T15:59:04;13.20;99.90
16958;DHT22;8595;52.542;11.974;2024-03-06T16:01:31;12.70;99.90